createdAt,value
2023-04-28T00:01:19.267Z,100538.66
2023-04-28T00:03:47.019Z,100529.63
2023-04-28T00:06:14.587Z,100532.50
2023-04-28T00:08:42.076Z,100530.00
2023-04-28T00:11:10.875Z,100526.28
2023-04-28T00:13:38.455Z,100527.53
2023-04-28T00:16:08.358Z,100518.91
2023-04-28T00:18:35.827Z,100506.53
2023-04-28T00:21:03.258Z,100507.34
2023-04-28T00:23:30.733Z,100494.81
2023-04-28T00:25:58.270Z,100487.03
2023-04-28T00:30:56.227Z,100480.47
2023-04-28T00:33:24.998Z,100481.91
2023-04-28T00:36:00.027Z,100471.63
2023-04-28T00:38:27.488Z,100473.50
2023-04-28T00:40:54.929Z,100470.81
2023-04-28T00:43:22.626Z,100467.94
2023-04-28T00:45:50.247Z,100470.38
2023-04-28T00:48:17.868Z,100468.75
2023-04-28T00:50:47.633Z,100454.72
2023-04-28T00:53:15.344Z,100463.22
2023-04-28T00:55:42.828Z,100461.56
2023-04-28T00:58:10.609Z,100458.22
2023-04-28T01:00:38.026Z,100449.81
2023-04-28T01:03:05.777Z,100454.91
2023-04-28T01:05:34.045Z,100451.44
2023-04-28T01:08:02.953Z,100456.03
2023-04-28T01:10:30.711Z,100455.19
2023-04-28T01:12:58.139Z,100440.81
2023-04-28T01:15:25.588Z,100434.81
2023-04-28T01:17:53.258Z,100431.72
2023-04-28T01:20:20.979Z,100430.91
2023-04-28T01:22:48.392Z,100430.69
2023-04-28T01:25:17.180Z,100425.78
2023-04-28T01:27:44.582Z,100424.94
2023-04-28T01:30:12.503Z,100427.84
2023-04-28T01:32:39.948Z,100416.53
2023-04-28T01:35:07.816Z,100407.06
2023-04-28T01:37:35.234Z,100405.66
2023-04-28T01:40:02.683Z,100395.81
2023-04-28T01:42:31.517Z,100389.84
2023-04-28T01:44:58.935Z,100388.38
2023-04-28T01:47:26.381Z,100387.34
2023-04-28T01:49:53.815Z,100392.25
2023-04-28T01:52:22.968Z,100387.75
2023-04-28T01:54:50.409Z,100394.72
2023-04-28T01:57:18.179Z,100391.03
2023-04-28T01:59:48.211Z,100395.97
2023-04-28T02:02:15.691Z,100395.72
2023-04-28T02:04:43.185Z,100403.88
2023-04-28T02:07:10.695Z,100401.97
2023-04-28T02:09:38.164Z,100398.97
2023-04-28T02:12:05.765Z,100418.00
2023-04-28T02:14:33.210Z,100412.16
2023-04-28T02:17:02.922Z,100417.97
2023-04-28T02:19:30.570Z,100423.09
2023-04-28T02:21:58.129Z,100421.47
2023-04-28T02:24:25.644Z,100412.19
2023-04-28T02:26:53.566Z,100407.28
2023-04-28T02:29:21.239Z,100412.81
2023-04-28T02:31:48.701Z,100401.66
2023-04-28T02:34:17.603Z,100394.25
2023-04-28T02:36:45.130Z,100394.66
2023-04-28T02:39:12.735Z,100397.53
2023-04-28T02:41:40.214Z,100390.91
2023-04-28T02:44:07.669Z,100381.38
2023-04-28T02:46:35.873Z,100376.38
2023-04-28T02:49:03.620Z,100375.06
2023-04-28T02:51:32.804Z,100369.31
2023-04-28T02:54:00.261Z,100368.91
2023-04-28T02:56:29.711Z,100364.13
2023-04-28T02:58:57.235Z,100360.72
2023-04-28T03:01:24.975Z,100355.78
2023-04-28T03:03:52.626Z,100354.97
2023-04-28T03:06:20.245Z,100355.56
2023-04-28T03:08:49.045Z,100347.97
2023-04-28T03:11:16.503Z,100353.09
2023-04-28T03:13:43.947Z,100346.50
2023-04-28T03:16:11.447Z,100334.63
2023-04-28T03:18:38.942Z,100344.38
2023-04-28T03:21:06.550Z,100326.31
2023-04-28T03:23:33.982Z,100334.78
2023-04-28T03:26:02.754Z,100332.09
2023-04-28T03:28:30.259Z,100329.28
2023-04-28T03:30:57.697Z,100332.94
2023-04-28T03:33:25.489Z,100333.66
2023-04-28T03:35:53.537Z,100336.84
2023-04-28T03:38:21.090Z,100343.69
2023-04-28T03:40:48.513Z,100342.88
2023-04-28T03:43:17.287Z,100345.75
2023-04-28T03:45:44.781Z,100342.03
2023-04-28T03:48:12.371Z,100339.19
2023-04-28T03:50:40.930Z,100328.53
2023-04-28T03:53:08.563Z,100323.63
2023-04-28T03:55:36.121Z,100314.81
2023-04-28T03:58:03.647Z,100317.47
2023-04-28T04:00:32.562Z,100309.69
2023-04-28T04:03:00.271Z,100303.75
2023-04-28T04:05:27.879Z,100298.16
2023-04-28T04:07:55.326Z,100301.41
2023-04-28T04:10:22.773Z,100298.94
2023-04-28T04:12:50.218Z,100289.56
2023-04-28T04:15:17.674Z,100287.97
2023-04-28T04:17:46.552Z,100278.50
2023-04-28T04:20:14.179Z,100279.78
2023-04-28T04:22:41.821Z,100279.50
2023-04-28T04:25:09.598Z,100275.31
2023-04-28T04:27:37.150Z,100274.59
2023-04-28T04:30:05.350Z,100274.53
2023-04-28T04:32:32.907Z,100279.75
2023-04-28T04:35:01.706Z,100277.38
2023-04-28T04:37:29.429Z,100271.44
2023-04-28T04:39:57.045Z,100270.66
2023-04-28T04:42:25.954Z,100273.41
2023-04-28T04:44:53.580Z,100288.41
2023-04-28T04:47:21.028Z,100279.72
2023-04-28T04:49:49.230Z,100281.72
2023-04-28T04:52:18.057Z,100289.19
2023-04-28T04:54:46.280Z,100291.44
2023-04-28T04:57:13.982Z,100294.59
2023-04-28T04:59:41.435Z,100295.75
2023-04-28T05:02:08.950Z,100303.28
2023-04-28T05:04:36.656Z,100310.44
2023-04-28T05:07:04.156Z,100311.75
2023-04-28T05:09:33.865Z,100312.44
2023-04-28T05:12:01.650Z,100306.44
2023-04-28T05:14:29.121Z,100306.84
2023-04-28T05:16:56.927Z,100301.28
2023-04-28T05:19:24.501Z,100310.97
2023-04-28T05:21:53.803Z,100294.03
2023-04-28T05:24:23.499Z,100294.44
2023-04-28T05:26:53.918Z,100306.22
2023-04-28T05:29:21.685Z,100300.28
2023-04-28T05:31:49.194Z,100310.56
2023-04-28T05:34:17.060Z,100310.56
2023-04-28T05:36:45.499Z,100303.81
2023-04-28T05:39:13.028Z,100304.06
2023-04-28T05:41:40.626Z,100311.03
2023-04-28T05:44:09.479Z,100305.28
2023-04-28T05:46:37.557Z,100313.25
2023-04-28T05:49:05.004Z,100314.63
2023-04-28T05:51:33.607Z,100312.38
2023-04-28T05:54:01.309Z,100310.78
2023-04-28T05:56:28.829Z,100320.19
2023-04-28T05:58:56.774Z,100325.38
2023-04-28T06:01:28.237Z,100319.41
2023-04-28T06:03:57.940Z,100317.31
2023-04-28T06:06:26.010Z,100328.19
2023-04-28T06:08:53.516Z,100330.38
2023-04-28T06:11:22.376Z,100332.78
2023-04-28T06:13:50.146Z,100331.50
2023-04-28T06:16:17.820Z,100324.75
2023-04-28T06:18:48.449Z,100328.63
2023-04-28T06:21:17.589Z,100323.09
2023-04-28T06:23:45.049Z,100317.78
2023-04-28T06:26:12.504Z,100320.59
2023-04-28T06:28:39.994Z,100326.09
2023-04-28T06:31:07.497Z,100337.59
2023-04-28T06:33:35.053Z,100338.63
2023-04-28T06:36:04.672Z,100340.94
2023-04-28T06:38:32.144Z,100340.34
2023-04-28T06:40:59.600Z,100335.13
2023-04-28T06:43:27.200Z,100331.50
2023-04-28T06:45:54.692Z,100335.13
2023-04-28T06:48:22.143Z,100337.97
2023-04-28T06:50:49.589Z,100339.00
2023-04-28T06:53:18.469Z,100332.84
2023-04-28T06:55:45.895Z,100334.84
2023-04-28T06:58:13.389Z,100350.44
2023-04-28T07:00:40.956Z,100342.97
2023-04-28T07:03:08.948Z,100312.31
2023-04-28T07:05:36.807Z,100317.31
2023-04-28T07:08:04.418Z,100318.09
2023-04-28T07:10:33.281Z,100311.09
2023-04-28T07:13:00.728Z,100300.44
2023-04-28T07:15:28.567Z,100291.47
2023-04-28T07:17:56.275Z,100304.78
2023-04-28T07:20:23.764Z,100308.00
2023-04-28T07:22:51.312Z,100305.63
2023-04-28T07:25:18.827Z,100294.19
2023-04-28T07:27:48.167Z,100287.44
2023-04-28T07:30:26.493Z,100296.00
2023-04-28T07:32:54.619Z,100287.91
2023-04-28T07:35:22.638Z,100291.22
2023-04-28T07:37:50.457Z,100293.88
2023-04-28T07:40:18.454Z,100298.56
2023-04-28T07:42:46.098Z,100299.78
2023-04-28T07:45:15.793Z,100292.84
2023-04-28T07:47:43.320Z,100290.63
2023-04-28T07:50:12.528Z,100278.06
2023-04-28T07:52:40.444Z,100272.22
2023-04-28T07:55:08.338Z,100278.41
2023-04-28T07:57:36.195Z,100275.28
2023-04-28T08:00:03.967Z,100295.47
2023-04-28T08:02:34.363Z,100288.66
2023-04-28T08:05:02.414Z,100293.69
2023-04-28T08:07:30.080Z,100294.63
2023-04-28T08:09:57.554Z,100287.41
2023-04-28T08:12:25.017Z,100288.91
2023-04-28T08:14:52.466Z,100292.50
2023-04-28T08:17:19.951Z,100291.94
2023-04-28T08:19:48.793Z,100306.06
2023-04-28T08:22:16.258Z,100317.56
2023-04-28T08:24:43.744Z,100307.75
2023-04-28T08:27:13.943Z,100316.75
2023-04-28T08:29:41.428Z,100313.88
2023-04-28T08:32:08.981Z,100313.72
2023-04-28T08:34:36.480Z,100319.47
2023-04-28T08:37:06.819Z,100313.94
2023-04-28T08:39:35.283Z,100313.94
2023-04-28T08:42:04.593Z,100317.00
2023-04-28T08:44:35.901Z,100320.69
2023-04-28T08:47:04.928Z,100317.22
2023-04-28T08:49:36.073Z,100325.81
2023-04-28T08:52:10.511Z,100317.22
2023-04-28T08:54:39.482Z,100320.31
2023-04-28T08:57:09.556Z,100319.91
2023-04-28T08:59:40.191Z,100321.94
2023-04-28T09:02:08.695Z,100320.72
2023-04-28T09:04:36.353Z,100338.00
2023-04-28T09:07:05.425Z,100320.13
2023-04-28T09:09:35.727Z,100319.13
2023-04-28T09:12:05.295Z,100324.88
2023-04-28T09:14:34.323Z,100324.88
2023-04-28T09:17:02.247Z,100320.16
2023-04-28T09:19:34.330Z,100317.91
2023-04-28T09:22:07.695Z,100309.94
2023-04-28T09:24:43.460Z,100315.06
2023-04-28T09:27:12.160Z,100317.94
2023-04-28T09:29:41.030Z,100323.06
2023-04-28T09:32:15.905Z,100322.06
2023-04-28T09:34:45.488Z,100326.97
2023-04-28T09:37:17.669Z,100322.69
2023-04-28T09:39:47.243Z,100317.47
2023-04-28T09:42:33.717Z,100317.84
2023-04-28T09:45:02.881Z,100316.16
2023-04-28T09:47:30.815Z,100326.44
2023-04-28T09:49:59.994Z,100328.47
2023-04-28T09:52:27.877Z,100325.13
2023-04-28T09:54:58.308Z,100320.34
2023-04-28T09:57:25.826Z,100319.66
2023-04-28T09:59:54.452Z,100319.69
2023-04-28T10:02:41.585Z,100331.75
2023-04-28T10:05:11.533Z,100329.00
2023-04-28T10:07:40.114Z,100316.19
2023-04-28T10:10:09.734Z,100310.94
2023-04-28T10:12:38.297Z,100308.34
2023-04-28T10:15:07.487Z,100303.25
2023-04-28T10:17:35.010Z,100295.53
2023-04-28T10:20:03.484Z,100304.53
2023-04-28T10:22:39.362Z,100295.91
2023-04-28T10:25:25.652Z,100299.41
2023-04-28T10:27:53.445Z,100302.69
2023-04-28T10:30:28.132Z,100303.94
2023-04-28T10:33:26.111Z,100306.69
2023-04-28T10:35:53.941Z,100300.97
2023-04-28T10:38:22.507Z,100301.03
2023-04-28T10:40:52.449Z,100293.47
2023-04-28T10:43:37.524Z,100290.75
2023-04-28T10:46:09.408Z,100281.91
2023-04-28T10:49:07.016Z,100277.59
2023-04-28T10:51:35.492Z,100279.94
2023-04-28T10:54:17.189Z,100274.22
2023-04-28T10:57:19.075Z,100267.88
2023-04-28T10:59:46.721Z,100264.59
2023-04-28T11:02:44.694Z,100261.56
2023-04-28T11:05:19.945Z,100261.28
2023-04-28T11:08:29.780Z,100259.91
2023-04-28T11:11:25.814Z,100270.94
2023-04-28T11:13:55.873Z,100264.44
2023-04-28T11:16:25.352Z,100274.53
2023-04-28T11:18:55.856Z,100274.81
2023-04-28T11:21:25.775Z,100274.22
2023-04-28T11:23:53.426Z,100271.03
2023-04-28T11:26:21.115Z,100259.34
2023-04-28T11:28:50.928Z,100263.09
2023-04-28T11:31:21.710Z,100258.75
2023-04-28T11:33:52.565Z,100260.06
2023-04-28T11:36:27.957Z,100258.53
2023-04-28T11:38:56.052Z,100256.59
2023-04-28T11:41:23.909Z,100262.22
2023-04-28T11:43:51.795Z,100251.34
2023-04-28T11:46:22.158Z,100248.34
2023-04-28T11:48:51.204Z,100248.88
2023-04-28T11:51:46.872Z,100240.81
2023-04-28T11:54:14.989Z,100234.44
2023-04-28T11:56:44.789Z,100232.44
2023-04-28T11:59:13.706Z,100236.13
2023-04-28T12:01:52.259Z,100233.44
2023-04-28T12:04:30.088Z,100232.28
2023-04-28T12:07:05.114Z,100236.47
2023-04-28T12:09:33.622Z,100227.06
2023-04-28T12:12:02.834Z,100240.53
2023-04-28T12:14:31.946Z,100238.66
2023-04-28T12:17:01.158Z,100226.94
2023-04-28T12:19:28.745Z,100236.88
2023-04-28T12:22:03.936Z,100228.91
2023-04-28T12:24:31.551Z,100224.38
2023-04-28T12:27:18.571Z,100237.19
2023-04-28T12:29:47.268Z,100231.84
2023-04-28T12:32:16.385Z,100231.31
2023-04-28T12:34:45.968Z,100231.03
2023-04-28T12:37:14.106Z,100230.66
2023-04-28T12:39:42.398Z,100226.41
2023-04-28T12:42:10.157Z,100216.41
2023-04-28T12:44:38.451Z,100214.75
2023-04-28T12:47:07.297Z,100215.16
2023-04-28T12:49:36.471Z,100215.75
2023-04-28T12:52:04.482Z,100213.72
2023-04-28T12:54:32.171Z,100212.84
2023-04-28T12:56:59.667Z,100229.53
2023-04-28T12:59:27.288Z,100221.91
2023-04-28T13:01:55.375Z,100222.56
2023-04-28T13:04:23.081Z,100218.47
2023-04-28T13:06:52.684Z,100204.75
2023-04-28T13:09:20.625Z,100215.63
2023-04-28T13:11:48.108Z,100212.56
2023-04-28T13:14:15.569Z,100207.97
2023-04-28T13:16:43.076Z,100209.69
2023-04-28T13:19:13.636Z,100205.75
2023-04-28T13:21:41.858Z,100202.63
2023-04-28T13:24:11.210Z,100194.38
2023-04-28T13:26:38.715Z,100189.97
2023-04-28T13:29:08.126Z,100186.94
2023-04-28T13:31:35.657Z,100205.41
2023-04-28T13:34:04.116Z,100205.38
2023-04-28T13:36:32.557Z,100196.06
2023-04-28T13:39:01.687Z,100205.75
2023-04-28T13:41:31.234Z,100196.41
2023-04-28T13:43:58.782Z,100185.31
2023-04-28T13:46:26.338Z,100181.97
2023-04-28T13:48:54.035Z,100177.75
2023-04-28T13:51:21.477Z,100178.88
2023-04-28T13:53:48.906Z,100187.66
2023-04-28T13:56:16.376Z,100189.41
2023-04-28T13:58:45.155Z,100179.47
2023-04-28T14:01:12.729Z,100170.88
2023-04-28T14:03:40.577Z,100178.81
2023-04-28T14:06:08.249Z,100159.25
2023-04-28T14:08:36.606Z,100163.81
2023-04-28T14:11:04.137Z,100158.25
2023-04-28T14:13:31.607Z,100147.13
2023-04-28T14:16:00.595Z,100159.19
2023-04-28T14:18:28.119Z,100163.41
2023-04-28T14:20:55.676Z,100170.44
2023-04-28T14:23:23.330Z,100176.41
2023-04-28T14:25:51.732Z,100160.97
2023-04-28T14:28:21.436Z,100147.41
2023-04-28T14:30:49.982Z,100135.81
2023-04-28T14:33:18.895Z,100151.13
2023-04-28T14:35:46.364Z,100155.78
2023-04-28T14:38:13.969Z,100147.69
2023-04-28T14:40:42.782Z,100149.34
2023-04-28T14:43:10.244Z,100154.03
2023-04-28T14:45:38.080Z,100151.06
2023-04-28T14:48:06.819Z,100138.50
2023-04-28T14:50:35.867Z,100145.28
2023-04-28T14:53:06.775Z,100134.50
2023-04-28T14:55:34.458Z,100143.41
2023-04-28T14:58:02.854Z,100136.47
2023-04-28T15:00:30.742Z,100131.88
2023-04-28T15:02:58.492Z,100144.22
2023-04-28T15:05:26.058Z,100139.72
2023-04-28T15:07:54.888Z,100153.69
2023-04-28T15:10:22.343Z,100152.22
2023-04-28T15:12:49.802Z,100149.69
2023-04-28T15:15:17.254Z,100138.09
2023-04-28T15:17:45.322Z,100133.53
2023-04-28T15:20:12.987Z,100142.00
2023-04-28T15:22:40.972Z,100137.69
2023-04-28T15:25:10.263Z,100125.94
2023-04-28T15:27:37.935Z,100117.72
2023-04-28T15:30:06.381Z,100129.69
2023-04-28T15:32:33.863Z,100126.44
2023-04-28T15:35:01.571Z,100121.97
2023-04-28T15:37:40.733Z,100127.91
2023-04-28T15:40:11.377Z,100138.25
2023-04-28T15:42:41.798Z,100124.53
2023-04-28T15:45:10.861Z,100124.44
2023-04-28T15:47:39.050Z,100133.84
2023-04-28T15:50:08.960Z,100124.13
2023-04-28T15:52:39.268Z,100115.28
2023-04-28T15:55:07.990Z,100115.28
2023-04-28T15:57:37.495Z,100116.13
2023-04-28T16:00:06.720Z,100110.97
2023-04-28T16:02:34.412Z,100114.91
2023-04-28T16:05:02.515Z,100122.25
2023-04-28T16:07:30.757Z,100117.34
2023-04-28T16:09:58.769Z,100125.38
2023-04-28T16:12:26.376Z,100133.81
2023-04-28T16:14:55.891Z,100130.47
2023-04-28T16:17:23.573Z,100127.25
2023-04-28T16:19:51.046Z,100130.88
2023-04-28T16:22:18.545Z,100132.84
2023-04-28T16:24:46.341Z,100133.09
2023-04-28T16:27:14.199Z,100127.47
2023-04-28T16:29:41.686Z,100112.44
2023-04-28T16:32:10.627Z,100108.69
2023-04-28T16:34:38.155Z,100127.47
2023-04-28T16:37:06.874Z,100112.38
2023-04-28T16:39:34.625Z,100100.09
2023-04-28T16:42:03.685Z,100075.22
2023-04-28T16:44:31.514Z,100062.63
2023-04-28T16:46:59.384Z,100074.78
2023-04-28T16:49:28.296Z,100086.66
2023-04-28T16:51:57.535Z,100087.94
2023-04-28T16:54:25.289Z,100092.13
2023-04-28T16:56:52.865Z,100097.75
2023-04-28T16:59:20.460Z,100102.16
2023-04-28T17:01:48.171Z,100090.06
2023-04-28T17:04:16.780Z,100092.03
2023-04-28T17:06:46.359Z,100089.75
2023-04-28T17:09:13.928Z,100076.13
2023-04-28T17:11:41.363Z,100075.97
2023-04-28T17:14:08.816Z,100083.34
2023-04-28T17:16:36.996Z,100077.47
2023-04-28T17:19:05.427Z,100074.72
2023-04-28T17:21:33.642Z,100090.91
2023-04-28T17:24:02.742Z,100093.34
2023-04-28T17:26:31.210Z,100098.16
2023-04-28T17:28:59.838Z,100083.03
2023-04-28T17:31:27.499Z,100087.75
2023-04-28T17:33:57.486Z,100081.44
2023-04-28T17:36:25.916Z,100071.94
2023-04-28T17:38:53.616Z,100075.97
2023-04-28T17:41:22.771Z,100081.09
2023-04-28T17:43:51.401Z,100076.69
2023-04-28T17:46:19.025Z,100084.69
2023-04-28T17:48:46.712Z,100091.63
2023-04-28T17:51:14.209Z,100099.84
2023-04-28T17:53:42.451Z,100097.06
2023-04-28T17:56:09.951Z,100098.81
2023-04-28T17:58:38.768Z,100095.19
2023-04-28T18:01:07.731Z,100106.06
2023-04-28T18:03:35.913Z,100099.66
2023-04-28T18:06:04.724Z,100093.78
2023-04-28T18:08:32.181Z,100099.56
2023-04-28T18:11:00.530Z,100101.03
2023-04-28T18:13:28.058Z,100097.91
2023-04-28T18:15:56.879Z,100109.63
2023-04-28T18:18:24.387Z,100103.47
2023-04-28T18:20:57.910Z,100113.06
2023-04-28T18:23:25.986Z,100110.38
2023-04-28T18:25:53.446Z,100111.69
2023-04-28T18:28:21.080Z,100111.72
2023-04-28T18:30:47.524Z,100112.53
2023-04-28T18:33:19.498Z,100120.16
2023-04-28T18:35:48.824Z,100124.03
2023-04-28T18:38:16.611Z,100124.13
2023-04-28T18:40:44.043Z,100128.09
2023-04-28T18:43:11.699Z,100130.78
2023-04-28T18:45:41.196Z,100139.53
2023-04-28T18:48:10.177Z,100139.84
2023-04-28T18:50:39.271Z,100139.00
2023-04-28T18:53:08.753Z,100149.63
2023-04-28T18:55:36.875Z,100146.09
2023-04-28T18:58:04.567Z,100146.84
2023-04-28T19:00:32.649Z,100157.47
2023-04-28T19:03:00.438Z,100163.81
2023-04-28T19:05:28.087Z,100164.13
2023-04-28T19:07:56.856Z,100171.31
2023-04-28T19:10:24.312Z,100170.47
2023-04-28T19:12:51.751Z,100176.28
2023-04-28T19:15:19.290Z,100180.75
2023-04-28T19:17:46.829Z,100189.56
2023-04-28T19:20:14.400Z,100199.38
2023-04-28T19:22:42.114Z,100196.16
2023-04-28T19:25:11.289Z,100214.03
2023-04-28T19:27:40.378Z,100221.97
2023-04-28T19:30:10.900Z,100210.81
2023-04-28T19:32:38.760Z,100213.50
2023-04-28T19:35:07.958Z,100213.94
2023-04-28T19:37:35.938Z,100218.50
2023-04-28T19:40:05.618Z,100225.53
2023-04-28T19:42:35.285Z,100221.66
2023-04-28T19:45:03.747Z,100242.81
2023-04-28T19:47:33.707Z,100236.50
2023-04-28T19:50:01.330Z,100249.72
2023-04-28T19:52:29.009Z,100248.91
2023-04-28T19:54:57.167Z,100260.47
2023-04-28T19:57:24.721Z,100251.41
2023-04-28T19:59:53.614Z,100250.19
2023-04-28T20:02:21.530Z,100259.06
2023-04-28T20:04:49.728Z,100267.69
2023-04-28T20:07:17.230Z,100265.00
2023-04-28T20:09:45.464Z,100275.41
2023-04-28T20:12:13.274Z,100267.19
2023-04-28T20:14:40.738Z,100279.00
2023-04-28T20:17:09.940Z,100277.53
2023-04-28T20:19:37.658Z,100281.88
2023-04-28T20:22:08.337Z,100281.06
2023-04-28T20:24:36.926Z,100280.69
2023-04-28T20:27:04.678Z,100287.09
2023-04-28T20:29:34.724Z,100286.47
2023-04-28T20:32:03.186Z,100285.72
2023-04-28T20:34:32.128Z,100285.00
2023-04-28T20:37:03.458Z,100290.72
2023-04-28T20:39:30.986Z,100280.09
2023-04-28T20:41:59.322Z,100283.81
2023-04-28T20:44:26.824Z,100285.72
2023-04-28T20:46:55.190Z,100278.69
2023-04-28T20:49:22.726Z,100280.78
2023-04-28T20:51:51.514Z,100274.69
2023-04-28T20:54:19.007Z,100284.53
2023-04-28T20:56:46.607Z,100281.66
2023-04-28T20:59:14.055Z,100290.56
2023-04-28T21:01:41.933Z,100294.06
2023-04-28T21:04:09.579Z,100291.16
2023-04-28T21:06:37.283Z,100285.19
2023-04-28T21:09:06.112Z,100297.38
2023-04-28T21:11:33.673Z,100286.66
2023-04-28T21:14:01.115Z,100280.28
2023-04-28T21:16:28.582Z,100287.50
2023-04-28T21:18:56.583Z,100299.06
2023-04-28T21:21:24.032Z,100293.66
2023-04-28T21:23:51.468Z,100293.66
2023-04-28T21:26:21.809Z,100307.25
2023-04-28T21:28:50.140Z,100297.41
2023-04-28T21:31:17.579Z,100303.75
2023-04-28T21:33:45.000Z,100304.41
2023-04-28T21:36:12.495Z,100298.19
2023-04-28T21:38:39.969Z,100305.81
2023-04-28T21:41:08.660Z,100300.66
2023-04-28T21:43:37.509Z,100296.97
2023-04-28T21:46:05.088Z,100306.41
2023-04-28T21:48:32.769Z,100309.72
2023-04-28T21:51:01.101Z,100307.22
2023-04-28T21:53:28.627Z,100301.50
2023-04-28T21:55:56.132Z,100303.75
2023-04-28T21:58:23.736Z,100305.97
2023-04-28T22:00:52.853Z,100302.31
2023-04-28T22:03:20.512Z,100309.72
2023-04-28T22:05:48.266Z,100308.66
2023-04-28T22:08:16.865Z,100311.75
2023-04-28T22:10:45.384Z,100308.66
2023-04-28T22:13:12.866Z,100311.09
2023-04-28T22:15:41.620Z,100308.84
2023-04-28T22:18:10.451Z,100314.16
2023-04-28T22:20:38.321Z,100312.28
2023-04-28T22:23:05.968Z,100318.63
2023-04-28T22:25:33.460Z,100314.94
2023-04-28T22:28:00.903Z,100315.53
2023-04-28T22:30:28.467Z,100327.00
2023-04-28T22:32:55.959Z,100318.00
2023-04-28T22:35:24.847Z,100322.06
2023-04-28T22:37:52.413Z,100321.63
2023-04-28T22:40:19.982Z,100328.25
2023-04-28T22:42:47.452Z,100340.75
2023-04-28T22:45:14.971Z,100328.59
2023-04-28T22:47:42.807Z,100336.50
2023-04-28T22:50:10.886Z,100333.09
2023-04-28T22:52:40.005Z,100330.34
2023-04-28T22:55:08.308Z,100325.78
2023-04-28T22:57:36.349Z,100331.50
2023-04-28T23:00:04.138Z,100332.03
2023-04-28T23:02:31.775Z,100335.75
2023-04-28T23:04:59.836Z,100338.78
2023-04-28T23:07:27.355Z,100339.25
2023-04-28T23:09:56.145Z,100334.75
2023-04-28T23:12:23.652Z,100334.13
2023-04-28T23:14:51.105Z,100320.47
2023-04-28T23:17:18.664Z,100324.59
2023-04-28T23:19:46.141Z,100325.22
2023-04-28T23:22:13.634Z,100333.13
2023-04-28T23:24:42.253Z,100329.25
2023-04-28T23:27:11.072Z,100332.41
2023-04-28T23:29:38.519Z,100320.84
2023-04-28T23:32:06.705Z,100332.75
2023-04-28T23:34:34.229Z,100327.81
2023-04-28T23:37:01.664Z,100336.06
2023-04-28T23:39:30.005Z,100336.84
2023-04-28T23:41:58.534Z,100338.34
2023-04-28T23:44:27.478Z,100330.16
2023-04-28T23:46:56.117Z,100326.25
2023-04-28T23:49:23.904Z,100333.38
2023-04-28T23:51:51.356Z,100336.41
2023-04-28T23:54:18.801Z,100338.22
2023-04-28T23:56:46.279Z,100334.72
2023-04-28T23:59:13.782Z,100333.72
